sensor_id;sensor_type;location;lat;lon;timestamp;temperature;humidity
7427;DHT22;3755;59.316;18.092;2024-03-23T00:54:15;4.00;99.90
7427;DHT22;3755;59.316;18.092;2024-03-23T00:56:42;3.90;99.90
7427;DHT22;3755;59.316;18.092;2024-03-23T00:59:10;4.00;99.90
7427;DHT22;3755;59.316;18.092;2024-03-23T01:01:37;3.90;99.90
7427;DHT22;3755;59.316;18.092;2024-03-23T01:04:04;3.90;99.90
7427;DHT22;3755;59.316;18.092;2024-03-23T01:06:32;3.80;99.90
7427;DHT22;3755;59.316;18.092;2024-03-23T01:08:59;3.80;99.90
7427;DHT22;3755;59.316;18.092;2024-03-23T01:11:25;3.80;99.90
7427;DHT22;3755;59.316;18.092;2024-03-23T01:13:54;3.80;99.90
7427;DHT22;3755;59.316;18.092;2024-03-23T01:16:21;3.70;99.90
7427;DHT22;3755;59.316;18.092;2024-03-23T01:18:48;3.70;99.90
7427;DHT22;3755;59.316;18.092;2024-03-23T01:21:15;3.70;99.90
7427;DHT22;3755;59.316;18.092;2024-03-23T01:23:44;3.70;99.90
7427;DHT22;3755;59.316;18.092;2024-03-23T01:26:10;3.70;99.90
7427;DHT22;3755;59.316;18.092;2024-03-23T01:28:38;3.70;99.90
7427;DHT22;3755;59.316;18.092;2024-03-23T01:31:04;3.60;99.90
7427;DHT22;3755;59.316;18.092;2024-03-23T01:33:31;3.60;99.90
7427;DHT22;3755;59.316;18.092;2024-03-23T01:35:58;3.60;99.90
7427;DHT22;3755;59.316;18.092;2024-03-23T01:38:25;3.50;99.90
7427;DHT22;3755;59.316;18.092;2024-03-23T01:40:58;3.50;99.90
7427;DHT22;3755;59.316;18.092;2024-03-23T01:43:25;3.50;99.90
7427;DHT22;3755;59.316;18.092;2024-03-23T01:45:53;3.50;99.90
7427;DHT22;3755;59.316;18.092;2024-03-23T01:48:21;3.50;99.90
7427;DHT22;3755;59.316;18.092;2024-03-23T01:50:47;3.50;99.90
7427;DHT22;3755;59.316;18.092;2024-03-23T01:53:15;3.40;99.90
7427;DHT22;3755;59.316;18.092;2024-03-23T01:55:43;3.40;99.90
7427;DHT22;3755;59.316;18.092;2024-03-23T01:58:11;3.40;99.90
7427;DHT22;3755;59.316;18.092;2024-03-23T02:00:38;3.40;99.90
7427;DHT22;3755;59.316;18.092;2024-03-23T02:03:22;3.50;99.90
7427;DHT22;3755;59.316;18.092;2024-03-23T02:05:50;3.30;99.90
7427;DHT22;3755;59.316;18.092;2024-03-23T02:08:17;3.30;99.90
7427;DHT22;3755;59.316;18.092;2024-03-23T02:10:43;3.30;99.90
7427;DHT22;3755;59.316;18.092;2024-03-23T02:13:12;3.30;99.90
7427;DHT22;3755;59.316;18.092;2024-03-23T02:15:39;3.30;99.90
7427;DHT22;3755;59.316;18.092;2024-03-23T02:18:07;3.30;99.90
7427;DHT22;3755;59.316;18.092;2024-03-23T02:20:34;3.30;99.90
7427;DHT22;3755;59.316;18.092;2024-03-23T02:23:03;3.30;99.90
7427;DHT22;3755;59.316;18.092;2024-03-23T02:25:29;3.30;99.90
7427;DHT22;3755;59.316;18.092;2024-03-23T02:27:56;3.30;99.90
7427;DHT22;3755;59.316;18.092;2024-03-23T02:30:24;3.30;99.90
7427;DHT22;3755;59.316;18.092;2024-03-23T02:32:51;3.30;99.90
7427;DHT22;3755;59.316;18.092;2024-03-23T02:35:17;3.30;99.90
7427;DHT22;3755;59.316;18.092;2024-03-23T02:37:46;3.20;99.90
7427;DHT22;3755;59.316;18.092;2024-03-23T02:40:14;3.20;99.90
7427;DHT22;3755;59.316;18.092;2024-03-23T02:42:41;3.20;99.90
7427;DHT22;3755;59.316;18.092;2024-03-23T02:45:07;3.20;99.90
7427;DHT22;3755;59.316;18.092;2024-03-23T02:47:34;3.20;99.90
7427;DHT22;3755;59.316;18.092;2024-03-23T02:50:00;3.10;99.90
7427;DHT22;3755;59.316;18.092;2024-03-23T02:52:28;3.10;99.90
7427;DHT22;3755;59.316;18.092;2024-03-23T02:54:54;3.10;99.90
7427;DHT22;3755;59.316;18.092;2024-03-23T02:57:23;3.10;99.90
7427;DHT22;3755;59.316;18.092;2024-03-23T02:59:49;3.00;99.90
7427;DHT22;3755;59.316;18.092;2024-03-23T03:02:16;3.00;99.90
7427;DHT22;3755;59.316;18.092;2024-03-23T03:04:42;3.00;99.90
7427;DHT22;3755;59.316;18.092;2024-03-23T03:07:09;2.90;99.90
7427;DHT22;3755;59.316;18.092;2024-03-23T03:09:36;2.90;99.90
7427;DHT22;3755;59.316;18.092;2024-03-23T03:12:05;2.90;99.90
7427;DHT22;3755;59.316;18.092;2024-03-23T03:14:32;2.90;99.90
7427;DHT22;3755;59.316;18.092;2024-03-23T03:17:00;2.80;99.90
7427;DHT22;3755;59.316;18.092;2024-03-23T03:19:26;2.80;99.90
7427;DHT22;3755;59.316;18.092;2024-03-23T03:21:53;2.80;99.90
7427;DHT22;3755;59.316;18.092;2024-03-23T03:24:19;2.80;99.90
7427;DHT22;3755;59.316;18.092;2024-03-23T03:26:46;2.80;99.90
7427;DHT22;3755;59.316;18.092;2024-03-23T03:29:12;2.80;99.90
7427;DHT22;3755;59.316;18.092;2024-03-23T03:31:41;2.70;99.90
7427;DHT22;3755;59.316;18.092;2024-03-23T03:34:07;2.70;99.90
7427;DHT22;3755;59.316;18.092;2024-03-23T03:36:35;2.70;99.90
7427;DHT22;3755;59.316;18.092;2024-03-23T03:39:01;2.70;99.90
7427;DHT22;3755;59.316;18.092;2024-03-23T03:41:29;2.70;99.90
7427;DHT22;3755;59.316;18.092;2024-03-23T03:43:55;2.60;99.90
7427;DHT22;3755;59.316;18.092;2024-03-23T03:46:22;2.60;99.90
7427;DHT22;3755;59.316;18.092;2024-03-23T03:48:50;2.60;99.90
7427;DHT22;3755;59.316;18.092;2024-03-23T03:51:17;2.60;99.90
7427;DHT22;3755;59.316;18.092;2024-03-23T03:53:43;2.60;99.90
7427;DHT22;3755;59.316;18.092;2024-03-23T03:56:10;2.60;99.90
7427;DHT22;3755;59.316;18.092;2024-03-23T03:58:36;2.60;99.90
7427;DHT22;3755;59.316;18.092;2024-03-23T04:01:03;2.60;99.90
7427;DHT22;3755;59.316;18.092;2024-03-23T04:03:29;2.50;99.90
7427;DHT22;3755;59.316;18.092;2024-03-23T04:05:58;2.50;99.90
7427;DHT22;3755;59.316;18.092;2024-03-23T04:08:24;2.60;99.90
7427;DHT22;3755;59.316;18.092;2024-03-23T04:10:51;2.50;99.90
7427;DHT22;3755;59.316;18.092;2024-03-23T04:13:18;2.50;99.90
7427;DHT22;3755;59.316;18.092;2024-03-23T04:15:45;2.50;99.90
7427;DHT22;3755;59.316;18.092;2024-03-23T04:18:11;2.50;99.90
7427;DHT22;3755;59.316;18.092;2024-03-23T04:20:38;2.50;99.90
7427;DHT22;3755;59.316;18.092;2024-03-23T04:23:06;2.50;99.90
7427;DHT22;3755;59.316;18.092;2024-03-23T04:25:33;2.50;99.90
7427;DHT22;3755;59.316;18.092;2024-03-23T04:27:59;2.50;99.90
7427;DHT22;3755;59.316;18.092;2024-03-23T04:30:27;2.50;99.90
7427;DHT22;3755;59.316;18.092;2024-03-23T04:32:55;2.50;99.90
7427;DHT22;3755;59.316;18.092;2024-03-23T04:35:23;2.50;99.90
7427;DHT22;3755;59.316;18.092;2024-03-23T04:37:51;2.40;99.90
7427;DHT22;3755;59.316;18.092;2024-03-23T04:40:22;2.40;99.90
7427;DHT22;3755;59.316;18.092;2024-03-23T04:42:51;2.40;99.90
7427;DHT22;3755;59.316;18.092;2024-03-23T04:45:18;2.40;99.90
7427;DHT22;3755;59.316;18.092;2024-03-23T04:47:47;2.40;99.90
7427;DHT22;3755;59.316;18.092;2024-03-23T04:50:15;2.40;99.90
7427;DHT22;3755;59.316;18.092;2024-03-23T04:52:42;2.40;99.90
7427;DHT22;3755;59.316;18.092;2024-03-23T04:55:08;2.40;99.90
7427;DHT22;3755;59.316;18.092;2024-03-23T04:57:38;2.40;99.90
7427;DHT22;3755;59.316;18.092;2024-03-23T05:00:06;2.40;99.90
7427;DHT22;3755;59.316;18.092;2024-03-23T05:02:44;2.40;99.90
7427;DHT22;3755;59.316;18.092;2024-03-23T05:05:11;2.40;99.90
7427;DHT22;3755;59.316;18.092;2024-03-23T05:07:39;2.40;99.90
7427;DHT22;3755;59.316;18.092;2024-03-23T05:10:06;2.40;99.90
7427;DHT22;3755;59.316;18.092;2024-03-23T05:12:37;2.40;99.90
7427;DHT22;3755;59.316;18.092;2024-03-23T05:15:05;2.40;99.90
7427;DHT22;3755;59.316;18.092;2024-03-23T05:17:33;2.40;99.90
7427;DHT22;3755;59.316;18.092;2024-03-23T05:19:59;2.40;99.90
7427;DHT22;3755;59.316;18.092;2024-03-23T05:22:27;2.50;99.90
7427;DHT22;3755;59.316;18.092;2024-03-23T05:24:53;2.50;99.90
7427;DHT22;3755;59.316;18.092;2024-03-23T05:27:20;2.60;99.90
7427;DHT22;3755;59.316;18.092;2024-03-23T05:29:48;2.60;99.90
7427;DHT22;3755;59.316;18.092;2024-03-23T05:32:15;2.60;99.90
7427;DHT22;3755;59.316;18.092;2024-03-23T05:34:41;2.70;99.90
7427;DHT22;3755;59.316;18.092;2024-03-23T05:37:08;2.60;99.90
7427;DHT22;3755;59.316;18.092;2024-03-23T05:39:34;2.70;99.90
7427;DHT22;3755;59.316;18.092;2024-03-23T05:42:01;2.70;99.90
7427;DHT22;3755;59.316;18.092;2024-03-23T05:44:27;2.70;99.90
7427;DHT22;3755;59.316;18.092;2024-03-23T05:46:57;2.70;99.90
7427;DHT22;3755;59.316;18.092;2024-03-23T05:49:23;2.70;99.90
7427;DHT22;3755;59.316;18.092;2024-03-23T05:51:50;2.70;99.90
7427;DHT22;3755;59.316;18.092;2024-03-23T05:54:16;2.80;99.90
7427;DHT22;3755;59.316;18.092;2024-03-23T05:56:45;2.90;99.90
7427;DHT22;3755;59.316;18.092;2024-03-23T05:59:11;2.80;99.90
7427;DHT22;3755;59.316;18.092;2024-03-23T06:01:38;2.80;99.90
7427;DHT22;3755;59.316;18.092;2024-03-23T06:04:06;2.90;99.90
7427;DHT22;3755;59.316;18.092;2024-03-23T06:06:33;2.90;99.90
7427;DHT22;3755;59.316;18.092;2024-03-23T06:08:59;3.00;99.90
7427;DHT22;3755;59.316;18.092;2024-03-23T06:11:26;3.00;99.90
7427;DHT22;3755;59.316;18.092;2024-03-23T06:13:52;3.00;99.90
7427;DHT22;3755;59.316;18.092;2024-03-23T06:16:20;3.10;99.90
7427;DHT22;3755;59.316;18.092;2024-03-23T06:18:49;3.10;99.90
7427;DHT22;3755;59.316;18.092;2024-03-23T06:21:18;3.20;99.90
7427;DHT22;3755;59.316;18.092;2024-03-23T06:23:45;3.20;99.90
7427;DHT22;3755;59.316;18.092;2024-03-23T06:26:16;3.30;99.90
7427;DHT22;3755;59.316;18.092;2024-03-23T06:28:42;3.10;99.90
7427;DHT22;3755;59.316;18.092;2024-03-23T06:31:10;3.40;99.90
7427;DHT22;3755;59.316;18.092;2024-03-23T06:33:36;3.40;99.90
7427;DHT22;3755;59.316;18.092;2024-03-23T06:36:04;3.40;99.90
7427;DHT22;3755;59.316;18.092;2024-03-23T06:38:33;3.50;99.90
7427;DHT22;3755;59.316;18.092;2024-03-23T06:41:06;3.50;99.90
7427;DHT22;3755;59.316;18.092;2024-03-23T06:43:32;3.50;99.90
7427;DHT22;3755;59.316;18.092;2024-03-23T06:45:59;3.50;99.90
7427;DHT22;3755;59.316;18.092;2024-03-23T06:48:25;3.50;99.90
7427;DHT22;3755;59.316;18.092;2024-03-23T06:50:56;3.70;99.90
7427;DHT22;3755;59.316;18.092;2024-03-23T06:53:23;3.80;99.90
7427;DHT22;3755;59.316;18.092;2024-03-23T06:55:56;3.90;99.90
7427;DHT22;3755;59.316;18.092;2024-03-23T06:58:23;3.90;99.90
7427;DHT22;3755;59.316;18.092;2024-03-23T07:00:51;3.90;99.90
7427;DHT22;3755;59.316;18.092;2024-03-23T07:03:19;4.00;99.90
7427;DHT22;3755;59.316;18.092;2024-03-23T07:05:47;3.80;99.90
7427;DHT22;3755;59.316;18.092;2024-03-23T07:08:14;3.90;99.90
7427;DHT22;3755;59.316;18.092;2024-03-23T07:10:46;4.00;99.90
7427;DHT22;3755;59.316;18.092;2024-03-23T07:13:14;4.10;99.90
7427;DHT22;3755;59.316;18.092;2024-03-23T07:15:43;4.20;99.90
7427;DHT22;3755;59.316;18.092;2024-03-23T07:18:09;4.30;99.90
7427;DHT22;3755;59.316;18.092;2024-03-23T07:20:36;4.20;99.90
7427;DHT22;3755;59.316;18.092;2024-03-23T07:23:02;4.30;99.90
7427;DHT22;3755;59.316;18.092;2024-03-23T07:25:29;4.30;99.90
7427;DHT22;3755;59.316;18.092;2024-03-23T07:27:55;4.40;99.90
7427;DHT22;3755;59.316;18.092;2024-03-23T07:30:24;4.30;99.90
7427;DHT22;3755;59.316;18.092;2024-03-23T07:32:50;4.40;99.90
7427;DHT22;3755;59.316;18.092;2024-03-23T07:35:18;4.50;99.90
7427;DHT22;3755;59.316;18.092;2024-03-23T07:37:45;4.60;99.90
7427;DHT22;3755;59.316;18.092;2024-03-23T07:40:12;4.70;99.90
7427;DHT22;3755;59.316;18.092;2024-03-23T07:42:39;4.80;99.90
7427;DHT22;3755;59.316;18.092;2024-03-23T07:45:06;4.70;99.90
7427;DHT22;3755;59.316;18.092;2024-03-23T07:47:36;4.60;99.90
7427;DHT22;3755;59.316;18.092;2024-03-23T07:50:04;4.70;99.90
7427;DHT22;3755;59.316;18.092;2024-03-23T07:52:30;4.70;99.90
7427;DHT22;3755;59.316;18.092;2024-03-23T07:54:57;4.80;99.90
7427;DHT22;3755;59.316;18.092;2024-03-23T07:57:24;4.90;99.90
7427;DHT22;3755;59.316;18.092;2024-03-23T07:59:51;4.90;99.90
7427;DHT22;3755;59.316;18.092;2024-03-23T08:02:18;4.90;99.90
7427;DHT22;3755;59.316;18.092;2024-03-23T08:05:00;4.90;99.90
7427;DHT22;3755;59.316;18.092;2024-03-23T08:07:30;5.00;99.90
7427;DHT22;3755;59.316;18.092;2024-03-23T08:09:56;5.20;99.90
7427;DHT22;3755;59.316;18.092;2024-03-23T08:12:25;5.20;99.90
7427;DHT22;3755;59.316;18.092;2024-03-23T08:14:51;5.30;99.90
7427;DHT22;3755;59.316;18.092;2024-03-23T08:17:21;5.30;99.90
7427;DHT22;3755;59.316;18.092;2024-03-23T08:19:47;5.30;99.90
7427;DHT22;3755;59.316;18.092;2024-03-23T08:22:16;5.20;99.90
7427;DHT22;3755;59.316;18.092;2024-03-23T08:24:42;5.30;99.90
7427;DHT22;3755;59.316;18.092;2024-03-23T08:27:10;5.40;99.90
7427;DHT22;3755;59.316;18.092;2024-03-23T08:29:37;5.50;99.90
7427;DHT22;3755;59.316;18.092;2024-03-23T08:32:05;5.60;99.90
7427;DHT22;3755;59.316;18.092;2024-03-23T08:34:31;5.60;99.90
7427;DHT22;3755;59.316;18.092;2024-03-23T08:36:59;5.60;99.90
7427;DHT22;3755;59.316;18.092;2024-03-23T08:39:26;5.70;99.90
7427;DHT22;3755;59.316;18.092;2024-03-23T08:41:55;5.90;99.90
7427;DHT22;3755;59.316;18.092;2024-03-23T08:44:21;5.70;99.90
7427;DHT22;3755;59.316;18.092;2024-03-23T08:46:50;5.80;99.90
7427;DHT22;3755;59.316;18.092;2024-03-23T08:49:17;5.70;99.90
7427;DHT22;3755;59.316;18.092;2024-03-23T08:51:44;5.80;99.90
7427;DHT22;3755;59.316;18.092;2024-03-23T08:54:12;5.60;99.90
7427;DHT22;3755;59.316;18.092;2024-03-23T08:56:46;5.70;99.90
7427;DHT22;3755;59.316;18.092;2024-03-23T08:59:12;5.60;99.90
7427;DHT22;3755;59.316;18.092;2024-03-23T09:01:39;5.80;99.90
7427;DHT22;3755;59.316;18.092;2024-03-23T09:04:05;5.80;99.90
7427;DHT22;3755;59.316;18.092;2024-03-23T09:06:36;5.80;99.90
7427;DHT22;3755;59.316;18.092;2024-03-23T09:09:02;5.90;99.90
7427;DHT22;3755;59.316;18.092;2024-03-23T09:11:30;6.00;99.90
7427;DHT22;3755;59.316;18.092;2024-03-23T09:13:58;6.00;99.90
7427;DHT22;3755;59.316;18.092;2024-03-23T09:16:28;6.10;99.90
7427;DHT22;3755;59.316;18.092;2024-03-23T09:18:54;6.10;99.90
7427;DHT22;3755;59.316;18.092;2024-03-23T09:21:22;6.10;99.90
7427;DHT22;3755;59.316;18.092;2024-03-23T09:23:49;6.10;99.90
7427;DHT22;3755;59.316;18.092;2024-03-23T09:26:17;6.20;99.90
7427;DHT22;3755;59.316;18.092;2024-03-23T09:28:43;6.30;99.90
7427;DHT22;3755;59.316;18.092;2024-03-23T09:31:15;6.20;99.90
7427;DHT22;3755;59.316;18.092;2024-03-23T09:33:42;6.40;99.90
7427;DHT22;3755;59.316;18.092;2024-03-23T09:36:11;6.50;99.90
7427;DHT22;3755;59.316;18.092;2024-03-23T09:38:38;6.60;99.90
7427;DHT22;3755;59.316;18.092;2024-03-23T09:41:07;6.80;99.90
7427;DHT22;3755;59.316;18.092;2024-03-23T09:43:34;6.80;99.90
7427;DHT22;3755;59.316;18.092;2024-03-23T09:46:02;6.70;99.90
7427;DHT22;3755;59.316;18.092;2024-03-23T09:48:32;6.80;99.90
7427;DHT22;3755;59.316;18.092;2024-03-23T09:50:59;6.80;99.90
7427;DHT22;3755;59.316;18.092;2024-03-23T09:53:25;6.60;99.90
7427;DHT22;3755;59.316;18.092;2024-03-23T09:55:52;6.60;99.90
7427;DHT22;3755;59.316;18.092;2024-03-23T09:58:20;6.70;99.90
7427;DHT22;3755;59.316;18.092;2024-03-23T10:00:50;6.70;99.90
7427;DHT22;3755;59.316;18.092;2024-03-23T10:03:18;6.70;99.90
7427;DHT22;3755;59.316;18.092;2024-03-23T10:05:47;6.80;99.90
7427;DHT22;3755;59.316;18.092;2024-03-23T10:08:18;6.90;99.90
7427;DHT22;3755;59.316;18.092;2024-03-23T10:10:45;6.90;99.90
7427;DHT22;3755;59.316;18.092;2024-03-23T10:13:24;6.90;99.90
7427;DHT22;3755;59.316;18.092;2024-03-23T10:15:56;6.90;99.90
7427;DHT22;3755;59.316;18.092;2024-03-23T10:18:24;6.90;99.90
7427;DHT22;3755;59.316;18.092;2024-03-23T10:21:07;6.90;99.90
7427;DHT22;3755;59.316;18.092;2024-03-23T10:23:40;7.00;99.90
7427;DHT22;3755;59.316;18.092;2024-03-23T10:26:15;7.20;99.90
7427;DHT22;3755;59.316;18.092;2024-03-23T10:28:58;7.20;99.90
7427;DHT22;3755;59.316;18.092;2024-03-23T10:31:27;7.30;99.90
7427;DHT22;3755;59.316;18.092;2024-03-23T10:33:55;7.40;99.90
7427;DHT22;3755;59.316;18.092;2024-03-23T10:36:23;7.60;99.90
7427;DHT22;3755;59.316;18.092;2024-03-23T10:38:52;7.80;99.90
7427;DHT22;3755;59.316;18.092;2024-03-23T10:41:18;8.10;99.90
7427;DHT22;3755;59.316;18.092;2024-03-23T10:43:47;8.10;99.90
7427;DHT22;3755;59.316;18.092;2024-03-23T10:46:15;8.00;99.90
7427;DHT22;3755;59.316;18.092;2024-03-23T10:48:45;7.90;99.90
7427;DHT22;3755;59.316;18.092;2024-03-23T10:51:14;7.90;99.90
7427;DHT22;3755;59.316;18.092;2024-03-23T10:53:42;7.90;99.90
7427;DHT22;3755;59.316;18.092;2024-03-23T10:56:11;7.80;99.90
7427;DHT22;3755;59.316;18.092;2024-03-23T10:58:41;7.70;99.90
7427;DHT22;3755;59.316;18.092;2024-03-23T11:01:10;7.70;99.90
7427;DHT22;3755;59.316;18.092;2024-03-23T11:03:39;7.70;99.90
7427;DHT22;3755;59.316;18.092;2024-03-23T11:06:08;7.70;99.90
7427;DHT22;3755;59.316;18.092;2024-03-23T11:08:50;7.90;99.90
7427;DHT22;3755;59.316;18.092;2024-03-23T11:11:18;8.00;99.90
7427;DHT22;3755;59.316;18.092;2024-03-23T11:13:47;8.00;99.90
7427;DHT22;3755;59.316;18.092;2024-03-23T11:16:16;8.00;99.90
7427;DHT22;3755;59.316;18.092;2024-03-23T11:18:43;8.10;99.90
7427;DHT22;3755;59.316;18.092;2024-03-23T11:21:11;8.30;99.90
7427;DHT22;3755;59.316;18.092;2024-03-23T11:24:15;8.00;99.90
7427;DHT22;3755;59.316;18.092;2024-03-23T11:26:45;8.00;99.90
7427;DHT22;3755;59.316;18.092;2024-03-23T11:29:12;7.90;99.90
7427;DHT22;3755;59.316;18.092;2024-03-23T11:31:46;7.80;99.90
7427;DHT22;3755;59.316;18.092;2024-03-23T11:34:17;7.90;99.90
7427;DHT22;3755;59.316;18.092;2024-03-23T11:36:47;7.80;99.90
7427;DHT22;3755;59.316;18.092;2024-03-23T11:39:18;7.90;99.90
7427;DHT22;3755;59.316;18.092;2024-03-23T11:41:53;7.90;99.90
7427;DHT22;3755;59.316;18.092;2024-03-23T11:44:20;8.00;99.90
7427;DHT22;3755;59.316;18.092;2024-03-23T11:46:48;8.20;99.90
7427;DHT22;3755;59.316;18.092;2024-03-23T11:49:23;8.30;99.90
7427;DHT22;3755;59.316;18.092;2024-03-23T11:51:51;8.40;99.90
7427;DHT22;3755;59.316;18.092;2024-03-23T11:54:20;8.40;99.90
7427;DHT22;3755;59.316;18.092;2024-03-23T11:56:57;8.40;99.90
7427;DHT22;3755;59.316;18.092;2024-03-23T11:59:33;8.40;99.90
7427;DHT22;3755;59.316;18.092;2024-03-23T12:02:06;8.30;99.90
7427;DHT22;3755;59.316;18.092;2024-03-23T12:04:34;8.30;99.90
7427;DHT22;3755;59.316;18.092;2024-03-23T12:07:12;8.40;99.90
7427;DHT22;3755;59.316;18.092;2024-03-23T12:09:40;8.30;99.90
7427;DHT22;3755;59.316;18.092;2024-03-23T12:12:10;8.30;99.90
7427;DHT22;3755;59.316;18.092;2024-03-23T12:14:36;8.40;99.90
7427;DHT22;3755;59.316;18.092;2024-03-23T12:17:11;8.50;99.90
7427;DHT22;3755;59.316;18.092;2024-03-23T12:19:37;8.70;99.90
7427;DHT22;3755;59.316;18.092;2024-03-23T12:22:04;9.00;99.90
7427;DHT22;3755;59.316;18.092;2024-03-23T12:24:31;9.00;99.90
7427;DHT22;3755;59.316;18.092;2024-03-23T12:27:02;9.10;99.90
7427;DHT22;3755;59.316;18.092;2024-03-23T12:29:29;9.20;99.90
7427;DHT22;3755;59.316;18.092;2024-03-23T12:32:00;8.90;99.90
7427;DHT22;3755;59.316;18.092;2024-03-23T12:34:26;8.50;99.90
7427;DHT22;3755;59.316;18.092;2024-03-23T12:36:58;8.00;99.90
7427;DHT22;3755;59.316;18.092;2024-03-23T12:39:24;7.70;99.90
7427;DHT22;3755;59.316;18.092;2024-03-23T12:41:52;7.10;99.90
7427;DHT22;3755;59.316;18.092;2024-03-23T12:44:20;6.90;99.90
7427;DHT22;3755;59.316;18.092;2024-03-23T12:46:47;6.80;99.90
7427;DHT22;3755;59.316;18.092;2024-03-23T12:49:14;6.70;99.90
7427;DHT22;3755;59.316;18.092;2024-03-23T12:51:48;6.70;99.90
7427;DHT22;3755;59.316;18.092;2024-03-23T12:54:14;6.70;99.90
7427;DHT22;3755;59.316;18.092;2024-03-23T12:56:41;6.80;99.90
7427;DHT22;3755;59.316;18.092;2024-03-23T12:59:07;7.00;99.90
7427;DHT22;3755;59.316;18.092;2024-03-23T13:01:35;7.00;99.90
7427;DHT22;3755;59.316;18.092;2024-03-23T13:04:01;6.90;99.90
7427;DHT22;3755;59.316;18.092;2024-03-23T13:06:28;6.90;99.90
7427;DHT22;3755;59.316;18.092;2024-03-23T13:09:00;6.90;99.90
7427;DHT22;3755;59.316;18.092;2024-03-23T13:11:27;6.80;99.90
7427;DHT22;3755;59.316;18.092;2024-03-23T13:13:54;6.80;99.90
7427;DHT22;3755;59.316;18.092;2024-03-23T13:16:21;6.70;99.90
7427;DHT22;3755;59.316;18.092;2024-03-23T13:18:48;6.80;99.90
7427;DHT22;3755;59.316;18.092;2024-03-23T13:21:16;6.90;99.90
7427;DHT22;3755;59.316;18.092;2024-03-23T13:23:42;7.00;99.90
7427;DHT22;3755;59.316;18.092;2024-03-23T13:26:13;7.00;99.90
7427;DHT22;3755;59.316;18.092;2024-03-23T13:28:39;7.10;99.90
7427;DHT22;3755;59.316;18.092;2024-03-23T13:31:07;7.10;99.90
7427;DHT22;3755;59.316;18.092;2024-03-23T13:33:34;7.20;99.90
7427;DHT22;3755;59.316;18.092;2024-03-23T13:36:04;7.20;99.90
7427;DHT22;3755;59.316;18.092;2024-03-23T13:38:30;7.20;99.90
7427;DHT22;3755;59.316;18.092;2024-03-23T13:40:58;7.00;99.90
7427;DHT22;3755;59.316;18.092;2024-03-23T13:43:25;6.60;99.90
7427;DHT22;3755;59.316;18.092;2024-03-23T13:45:59;6.10;99.90
7427;DHT22;3755;59.316;18.092;2024-03-23T13:48:26;5.60;99.90
7427;DHT22;3755;59.316;18.092;2024-03-23T13:50:58;5.70;99.90
7427;DHT22;3755;59.316;18.092;2024-03-23T13:53:25;5.70;99.90
7427;DHT22;3755;59.316;18.092;2024-03-23T13:55:53;5.90;99.90
7427;DHT22;3755;59.316;18.092;2024-03-23T13:58:19;5.90;99.90
7427;DHT22;3755;59.316;18.092;2024-03-23T14:00:46;5.90;99.90
7427;DHT22;3755;59.316;18.092;2024-03-23T14:03:13;5.90;99.90
7427;DHT22;3755;59.316;18.092;2024-03-23T14:05:41;6.00;99.90
7427;DHT22;3755;59.316;18.092;2024-03-23T14:08:07;6.10;99.90
7427;DHT22;3755;59.316;18.092;2024-03-23T14:10:37;6.20;99.90
7427;DHT22;3755;59.316;18.092;2024-03-23T14:13:05;6.20;99.90
7427;DHT22;3755;59.316;18.092;2024-03-23T14:15:33;6.10;99.90
7427;DHT22;3755;59.316;18.092;2024-03-23T14:17:59;6.00;99.90
7427;DHT22;3755;59.316;18.092;2024-03-23T14:20:27;5.90;99.90
7427;DHT22;3755;59.316;18.092;2024-03-23T14:22:53;5.70;99.90
7427;DHT22;3755;59.316;18.092;2024-03-23T14:25:21;5.60;99.90
7427;DHT22;3755;59.316;18.092;2024-03-23T14:27:54;5.40;99.90
7427;DHT22;3755;59.316;18.092;2024-03-23T14:30:21;5.50;99.90
7427;DHT22;3755;59.316;18.092;2024-03-23T14:32:47;5.50;99.90
7427;DHT22;3755;59.316;18.092;2024-03-23T14:35:14;5.50;99.90
7427;DHT22;3755;59.316;18.092;2024-03-23T14:37:41;5.60;99.90
7427;DHT22;3755;59.316;18.092;2024-03-23T14:40:09;5.60;99.90
7427;DHT22;3755;59.316;18.092;2024-03-23T14:42:38;5.70;99.90
7427;DHT22;3755;59.316;18.092;2024-03-23T14:45:07;5.80;99.90
7427;DHT22;3755;59.316;18.092;2024-03-23T14:47:34;5.90;99.90
7427;DHT22;3755;59.316;18.092;2024-03-23T14:50:01;6.00;99.90
7427;DHT22;3755;59.316;18.092;2024-03-23T14:52:28;6.20;99.90
7427;DHT22;3755;59.316;18.092;2024-03-23T14:54:55;6.30;99.90
7427;DHT22;3755;59.316;18.092;2024-03-23T14:57:22;6.30;99.90
7427;DHT22;3755;59.316;18.092;2024-03-23T14:59:49;6.50;99.90
7427;DHT22;3755;59.316;18.092;2024-03-23T15:02:17;6.50;99.90
7427;DHT22;3755;59.316;18.092;2024-03-23T15:04:44;6.60;99.90
7427;DHT22;3755;59.316;18.092;2024-03-23T15:07:13;6.70;99.90
7427;DHT22;3755;59.316;18.092;2024-03-23T15:09:40;6.70;99.90
7427;DHT22;3755;59.316;18.092;2024-03-23T15:12:06;6.80;99.90
7427;DHT22;3755;59.316;18.092;2024-03-23T15:14:34;6.80;99.90
7427;DHT22;3755;59.316;18.092;2024-03-23T15:17:03;6.80;99.90
7427;DHT22;3755;59.316;18.092;2024-03-23T15:19:34;6.80;99.90
7427;DHT22;3755;59.316;18.092;2024-03-23T15:22:00;6.70;99.90
7427;DHT22;3755;59.316;18.092;2024-03-23T15:24:28;6.60;99.90
7427;DHT22;3755;59.316;18.092;2024-03-23T15:26:57;6.60;99.90
7427;DHT22;3755;59.316;18.092;2024-03-23T15:29:24;6.60;99.90
7427;DHT22;3755;59.316;18.092;2024-03-23T15:31:50;6.60;99.90
7427;DHT22;3755;59.316;18.092;2024-03-23T15:34:18;6.60;99.90
7427;DHT22;3755;59.316;18.092;2024-03-23T15:36:46;6.60;99.90
7427;DHT22;3755;59.316;18.092;2024-03-23T15:39:15;6.60;99.90
7427;DHT22;3755;59.316;18.092;2024-03-23T15:41:41;6.60;99.90
7427;DHT22;3755;59.316;18.092;2024-03-23T15:44:08;6.50;99.90
7427;DHT22;3755;59.316;18.092;2024-03-23T15:46:34;6.60;99.90
7427;DHT22;3755;59.316;18.092;2024-03-23T15:49:01;6.60;99.90
7427;DHT22;3755;59.316;18.092;2024-03-23T15:51:28;6.50;99.90
7427;DHT22;3755;59.316;18.092;2024-03-23T15:54:00;6.50;99.90
7427;DHT22;3755;59.316;18.092;2024-03-23T15:56:26;6.40;99.90
7427;DHT22;3755;59.316;18.092;2024-03-23T15:58:54;6.50;99.90
7427;DHT22;3755;59.316;18.092;2024-03-23T16:01:21;6.50;99.90
7427;DHT22;3755;59.316;18.092;2024-03-23T16:03:48;6.50;99.90
7427;DHT22;3755;59.316;18.092;2024-03-23T16:06:14;6.40;99.90
7427;DHT22;3755;59.316;18.092;2024-03-23T16:08:41;6.40;99.90
7427;DHT22;3755;59.316;18.092;2024-03-23T16:11:11;6.40;99.90
7427;DHT22;3755;59.316;18.092;2024-03-23T16:13:38;6.30;99.90
7427;DHT22;3755;59.316;18.092;2024-03-23T16:16:07;6.30;99.90
7427;DHT22;3755;59.316;18.092;2024-03-23T16:18:36;6.30;99.90
7427;DHT22;3755;59.316;18.092;2024-03-23T16:21:04;6.30;99.90
7427;DHT22;3755;59.316;18.092;2024-03-23T16:23:32;6.30;99.90
7427;DHT22;3755;59.316;18.092;2024-03-23T16:25:58;6.20;99.90
7427;DHT22;3755;59.316;18.092;2024-03-23T16:28:31;6.20;99.90
7427;DHT22;3755;59.316;18.092;2024-03-23T16:31:00;6.20;99.90
7427;DHT22;3755;59.316;18.092;2024-03-23T16:33:29;6.20;99.90
7427;DHT22;3755;59.316;18.092;2024-03-23T16:36:00;6.30;99.90
7427;DHT22;3755;59.316;18.092;2024-03-23T16:38:28;6.20;99.90
7427;DHT22;3755;59.316;18.092;2024-03-23T16:40:56;6.20;99.90
7427;DHT22;3755;59.316;18.092;2024-03-23T16:43:24;6.20;99.90
7427;DHT22;3755;59.316;18.092;2024-03-23T16:45:56;6.10;99.90
7427;DHT22;3755;59.316;18.092;2024-03-23T16:48:25;6.10;99.90
7427;DHT22;3755;59.316;18.092;2024-03-23T16:50:56;6.10;99.90
7427;DHT22;3755;59.316;18.092;2024-03-23T16:53:23;6.00;99.90
7427;DHT22;3755;59.316;18.092;2024-03-23T16:55:54;6.00;99.90
7427;DHT22;3755;59.316;18.092;2024-03-23T16:58:23;6.00;99.90
7427;DHT22;3755;59.316;18.092;2024-03-23T17:00:49;5.90;99.90